Time;durP1;ratioP1;P1;durP2;ratioP2;P2;SDS_P1;SDS_P2;PMS_P1;PMS_P2;Temp;Humidity;BMP_temperature;BMP_pressure;BME280_temperature;BME280_humidity;BME280_pressure;Samples;Min_cycle;Max_cycle;Signal;HPM_P1;HPM_P2
2022/01/31 00:01:49;;;;;;;2.88;1.52;;;19.70;42.60;;;;;;5066816;28;20036;-65
2022/01/31 00:04:15;;;;;;;4.97;2.28;;;19.70;42.70;;;;;;5066305;28;20025;-65
2022/01/31 00:06:42;;;;;;;4.80;2.30;;;19.70;42.70;;;;;;5057731;28;20115;-65
2022/01/31 00:09:14;;;;;;;4.85;1.70;;;19.80;42.60;;;;;;5045514;28;20115;-65
2022/01/31 00:11:43;;;;;;;4.65;1.60;;;19.70;42.30;;;;;;5044902;28;20033;-65
2022/01/31 00:14:16;;;;;;;4.20;2.10;;;19.70;42.40;;;;;;5063167;28;20028;-65
2022/01/31 00:16:42;;;;;;;3.25;1.80;;;19.70;42.50;;;;;;5071342;28;20090;-65
2022/01/31 00:19:08;;;;;;;4.70;1.88;;;19.70;42.50;;;;;;5064068;28;20033;-65
2022/01/31 00:21:34;;;;;;;3.80;1.83;;;19.70;42.50;;;;;;5066692;28;20036;-66
2022/01/31 00:23:59;;;;;;;3.88;1.80;;;19.80;42.60;;;;;;5064465;28;20044;-66
2022/01/31 00:26:25;;;;;;;4.38;2.20;;;19.80;42.40;;;;;;5063615;28;20036;-66
2022/01/31 00:28:51;;;;;;;4.35;1.90;;;19.70;42.20;;;;;;5071246;28;20562;-65
2022/01/31 00:31:16;;;;;;;4.85;2.05;;;19.80;42.30;;;;;;5069948;28;20036;-66
2022/01/31 00:33:42;;;;;;;3.28;1.83;;;19.80;42.40;;;;;;5066073;28;20025;-66
2022/01/31 00:36:08;;;;;;;3.72;1.75;;;19.70;42.40;;;;;;5053187;28;20025;-65
2022/01/31 00:38:34;;;;;;;3.60;1.77;;;19.80;42.40;;;;;;5068362;28;20568;-65
2022/01/31 00:41:00;;;;;;;3.67;1.88;;;19.80;42.40;;;;;;5071936;28;20029;-66
2022/01/31 00:43:26;;;;;;;4.85;1.92;;;19.80;42.20;;;;;;5070777;28;20484;-65
2022/01/31 00:46:12;;;;;;;4.03;1.80;;;19.80;42.10;;;;;;5059533;28;20041;-65
2022/01/31 00:48:45;;;;;;;5.00;2.20;;;19.80;42.20;;;;;;5067529;28;20496;-66
2022/01/31 00:51:11;;;;;;;4.95;2.10;;;19.80;42.20;;;;;;5070774;28;20051;-63
2022/01/31 00:53:37;;;;;;;4.22;1.92;;;19.80;42.20;;;;;;5072601;28;20025;-65
2022/01/31 00:56:03;;;;;;;4.68;1.70;;;19.80;42.00;;;;;;5071003;28;20369;-64
2022/01/31 00:58:29;;;;;;;5.10;2.08;;;19.70;41.90;;;;;;5065359;28;20029;-65
2022/01/31 01:00:54;;;;;;;3.10;1.90;;;19.80;41.90;;;;;;5067313;28;20408;-64
2022/01/31 01:03:20;;;;;;;3.15;2.05;;;19.70;41.70;;;;;;5071716;28;20028;-64
2022/01/31 01:05:46;;;;;;;3.83;1.90;;;19.70;41.60;;;;;;5073323;28;20029;-64
2022/01/31 01:08:11;;;;;;;5.53;2.15;;;19.70;41.60;;;;;;5054901;28;20036;-64
2022/01/31 01:10:37;;;;;;;5.38;2.03;;;19.70;41.60;;;;;;5057620;28;20393;-64
2022/01/31 01:13:03;;;;;;;5.22;2.03;;;19.70;41.60;;;;;;5061731;28;20111;-64
2022/01/31 01:15:29;;;;;;;5.18;2.28;;;19.70;41.60;;;;;;5064337;28;20594;-64
2022/01/31 01:17:54;;;;;;;4.03;1.90;;;19.60;41.50;;;;;;5059570;28;20029;-64
2022/01/31 01:20:20;;;;;;;3.38;1.80;;;19.70;41.60;;;;;;5066999;28;20036;-64
2022/01/31 01:22:46;;;;;;;5.75;2.10;;;19.60;41.50;;;;;;5066387;28;20035;-64
2022/01/31 01:25:14;;;;;;;5.30;2.20;;;19.60;41.50;;;;;;5057587;28;20112;-64
2022/01/31 01:27:41;;;;;;;4.30;2.30;;;19.60;41.50;;;;;;5066645;28;20021;-64
2022/01/31 01:30:09;;;;;;;3.88;1.90;;;19.60;42.30;;;;;;5068821;28;20021;-64
2022/01/31 01:32:45;;;;;;;6.18;2.17;;;19.60;41.50;;;;;;5061460;28;20484;-64
2022/01/31 01:35:11;;;;;;;5.55;2.25;;;19.60;41.50;;;;;;5067922;28;20029;-64
2022/01/31 01:37:37;;;;;;;4.80;2.10;;;19.60;41.50;;;;;;5072998;28;20089;-64
2022/01/31 01:40:04;;;;;;;4.50;2.53;;;19.60;42.50;;;;;;5037437;28;20032;-65
2022/01/31 01:42:29;;;;;;;4.78;1.92;;;19.50;41.50;;;;;;5053155;28;20373;-64
2022/01/31 01:44:55;;;;;;;3.75;1.90;;;19.50;41.50;;;;;;5035313;28;20032;-64
2022/01/31 01:47:24;;;;;;;6.43;2.30;;;19.50;41.40;;;;;;5052971;28;20033;-64
2022/01/31 01:49:51;;;;;;;5.07;1.77;;;19.50;41.40;;;;;;5056941;28;20040;-64
2022/01/31 01:52:17;;;;;;;3.42;2.15;;;19.50;41.40;;;;;;5062593;28;20087;-64
2022/01/31 01:54:45;;;;;;;4.55;2.13;;;19.50;41.50;;;;;;5076714;28;20021;-64
2022/01/31 01:57:12;;;;;;;4.88;2.38;;;19.50;42.50;;;;;;5072618;28;20489;-64
2022/01/31 01:59:40;;;;;;;4.63;1.90;;;19.50;41.50;;;;;;5056836;28;20056;-64
2022/01/31 02:02:05;;;;;;;4.65;1.90;;;19.50;41.50;;;;;;5050996;28;20032;-64
2022/01/31 02:04:32;;;;;;;4.47;2.00;;;19.40;41.50;;;;;;5055784;28;20037;-64
2022/01/31 02:06:58;;;;;;;3.20;1.55;;;19.40;41.50;;;;;;5057049;28;20376;-64
2022/01/31 02:09:27;;;;;;;4.70;1.70;;;19.40;41.50;;;;;;5055689;28;20033;-64
2022/01/31 02:11:57;;;;;;;5.25;2.20;;;19.40;41.50;;;;;;5053731;28;20033;-64
2022/01/31 02:14:23;;;;;;;3.58;1.77;;;19.40;41.50;;;;;;5055984;28;20050;-64
2022/01/31 02:16:50;;;;;;;5.57;2.15;;;19.40;41.60;;;;;;5055607;28;20091;-64
2022/01/31 02:19:21;;;;;;;4.35;2.10;;;19.40;41.60;;;;;;5055988;28;20104;-64
2022/01/31 02:21:51;;;;;;;4.20;1.90;;;19.40;41.60;;;;;;5043031;28;20033;-65
2022/01/31 02:24:18;;;;;;;3.00;1.67;;;19.30;41.50;;;;;;5054420;28;20036;-65
2022/01/31 02:26:44;;;;;;;5.80;1.90;;;19.30;41.60;;;;;;5055422;28;20025;-65
2022/01/31 02:29:11;;;;;;;5.55;2.10;;;19.30;41.60;;;;;;5055422;28;20032;-65
2022/01/31 02:31:42;;;;;;;4.40;1.90;;;19.30;41.60;;;;;;5054419;28;20064;-65
2022/01/31 02:34:08;;;;;;;5.28;1.77;;;19.30;41.60;;;;;;5056107;28;20033;-65
2022/01/31 02:36:33;;;;;;;5.63;2.20;;;19.20;41.50;;;;;;5056128;28;20032;-65
2022/01/31 02:38:59;;;;;;;4.25;1.50;;;19.20;41.60;;;;;;5054415;28;20119;-65
2022/01/31 02:41:27;;;;;;;3.75;1.88;;;19.30;41.60;;;;;;5037387;28;20033;-65
2022/01/31 02:43:54;;;;;;;3.72;1.98;;;19.20;41.60;;;;;;5055706;28;20035;-65
2022/01/31 02:46:23;;;;;;;3.53;1.45;;;19.20;41.60;;;;;;5037716;28;20029;-65
2022/01/31 02:48:51;;;;;;;3.83;1.80;;;19.20;41.60;;;;;;5055127;28;20369;-65
2022/01/31 02:51:21;;;;;;;4.25;1.73;;;19.20;41.60;;;;;;5055069;28;20065;-65
2022/01/31 02:53:46;;;;;;;3.88;1.80;;;19.20;41.60;;;;;;5053214;28;20040;-65
2022/01/31 02:56:12;;;;;;;4.60;2.25;;;19.20;41.70;;;;;;5055460;28;20028;-65
2022/01/31 02:58:38;;;;;;;5.03;1.67;;;19.20;41.60;;;;;;5066804;28;20044;-65
2022/01/31 03:01:04;;;;;;;4.15;1.63;;;19.20;41.70;;;;;;5060348;28;20102;-65
2022/01/31 03:03:30;;;;;;;3.70;1.65;;;19.20;41.80;;;;;;5065841;28;20066;-65
2022/01/31 03:05:55;;;;;;;3.10;1.48;;;19.20;41.70;;;;;;5069028;28;20044;-65
2022/01/31 03:08:22;;;;;;;4.60;1.70;;;19.10;41.60;;;;;;5074783;28;20029;-65
2022/01/31 03:10:48;;;;;;;5.93;1.98;;;19.10;41.60;;;;;;5071075;28;20033;-65
2022/01/31 03:13:13;;;;;;;2.63;1.55;;;19.10;41.60;;;;;;5063672;28;20032;-65
2022/01/31 03:15:39;;;;;;;2.97;1.45;;;19.10;41.70;;;;;;5075473;28;20073;-65
2022/01/31 03:18:06;;;;;;;5.22;1.90;;;19.10;41.70;;;;;;5074955;28;20032;-65
2022/01/31 03:20:32;;;;;;;3.05;1.60;;;19.10;41.70;;;;;;5070983;28;20017;-65
2022/01/31 03:22:58;;;;;;;4.60;1.80;;;19.00;41.70;;;;;;5062428;28;20159;-65
2022/01/31 03:25:24;;;;;;;3.92;1.48;;;19.00;41.70;;;;;;5072418;28;20021;-65
2022/01/31 03:27:50;;;;;;;3.42;1.60;;;19.00;41.70;;;;;;5072594;28;20464;-65
2022/01/31 03:30:21;;;;;;;4.30;1.58;;;19.00;41.70;;;;;;5073014;28;20029;-64
2022/01/31 03:32:47;;;;;;;3.70;1.55;;;19.00;41.80;;;;;;5074358;28;20020;-64
2022/01/31 03:35:14;;;;;;;3.85;1.65;;;19.00;41.80;;;;;;5069440;28;20465;-64
2022/01/31 03:37:40;;;;;;;3.45;1.50;;;19.00;41.70;;;;;;5058460;28;20104;-64
2022/01/31 03:40:07;;;;;;;3.60;1.50;;;19.00;41.80;;;;;;5068711;28;20090;-64
2022/01/31 03:42:34;;;;;;;2.72;1.50;;;19.00;41.90;;;;;;5062583;28;20438;-64
2022/01/31 03:44:59;;;;;;;3.30;1.45;;;19.00;41.80;;;;;;5067074;28;20032;-64
2022/01/31 03:47:25;;;;;;;4.35;1.70;;;19.00;41.80;;;;;;5056128;28;20094;-64
2022/01/31 03:49:51;;;;;;;3.47;1.42;;;19.00;41.80;;;;;;5056077;28;20037;-64
2022/01/31 03:52:17;;;;;;;2.60;1.60;;;18.90;41.80;;;;;;5056825;28;20175;-64
2022/01/31 03:54:44;;;;;;;3.35;1.40;;;18.90;41.80;;;;;;5061486;28;20036;-64
2022/01/31 03:57:10;;;;;;;3.00;1.38;;;18.90;41.80;;;;;;5070162;28;20029;-64
2022/01/31 03:59:36;;;;;;;4.35;1.40;;;18.90;41.80;;;;;;5073699;28;20028;-64
2022/01/31 04:02:05;;;;;;;3.15;1.48;;;18.90;41.90;;;;;;5061483;28;20472;-64
2022/01/31 04:04:30;;;;;;;3.22;1.40;;;18.90;41.90;;;;;;5073764;28;20029;-64
2022/01/31 04:06:56;;;;;;;3.38;1.45;;;18.90;41.90;;;;;;5073996;28;20431;-64
2022/01/31 04:09:22;;;;;;;2.95;1.48;;;18.90;41.90;;;;;;5073087;28;20032;-64
2022/01/31 04:11:47;;;;;;;3.03;1.58;;;18.80;41.90;;;;;;5072821;28;20089;-64
2022/01/31 04:14:13;;;;;;;3.10;1.38;;;18.80;41.90;;;;;;5062301;28;20017;-64
2022/01/31 04:16:39;;;;;;;3.30;1.15;;;18.80;41.90;;;;;;5053746;28;20358;-64
2022/01/31 04:19:05;;;;;;;2.28;1.30;;;18.80;41.90;;;;;;5065299;28;20064;-64
2022/01/31 04:21:31;;;;;;;2.03;1.20;;;18.80;41.90;;;;;;5054619;28;20087;-64
2022/01/31 04:23:58;;;;;;;3.08;1.30;;;18.80;41.90;;;;;;5065797;28;20094;-64
2022/01/31 04:26:31;;;;;;;3.45;1.20;;;18.80;42.90;;;;;;5063362;28;20094;-64
2022/01/31 04:29:04;;;;;;;2.78;1.40;;;18.80;42.00;;;;;;5072401;28;20051;-64
2022/01/31 04:31:41;;;;;;;3.38;1.58;;;18.80;42.00;;;;;;5067458;28;21841;-64
2022/01/31 04:34:09;;;;;;;3.70;1.30;;;18.80;42.10;;;;;;5072074;28;20021;-64
2022/01/31 04:36:35;;;;;;;2.22;1.23;;;18.80;42.10;;;;;;5057231;28;20044;-64
2022/01/31 04:39:02;;;;;;;2.17;1.20;;;18.80;42.10;;;;;;5060570;28;20029;-64
2022/01/31 04:41:28;;;;;;;2.47;1.33;;;18.80;42.10;;;;;;5037037;28;20503;-64
2022/01/31 04:43:56;;;;;;;1.35;0.88;;;18.80;42.10;;;;;;5070872;28;20020;-64
2022/01/31 04:46:22;;;;;;;1.63;1.02;;;18.80;42.10;;;;;;5073614;28;20059;-64
2022/01/31 04:48:48;;;;;;;3.40;1.23;;;18.70;42.10;;;;;;5062632;28;20071;-64
2022/01/31 04:51:14;;;;;;;2.75;1.30;;;18.70;42.10;;;;;;5053569;28;20092;-64
2022/01/31 04:53:39;;;;;;;1.98;1.20;;;18.70;42.10;;;;;;5057010;28;20033;-64
2022/01/31 04:56:05;;;;;;;2.17;0.90;;;18.70;43.10;;;;;;5070547;28;20028;-64
2022/01/31 04:58:32;;;;;;;3.40;1.33;;;18.70;42.10;;;;;;5070434;28;20608;-64
2022/01/31 05:00:58;;;;;;;3.25;1.02;;;18.70;42.10;;;;;;5066066;28;20540;-64
2022/01/31 05:03:24;;;;;;;2.72;1.33;;;18.70;42.20;;;;;;5061234;28;20070;-64
2022/01/31 05:05:50;;;;;;;2.92;1.08;;;18.70;42.20;;;;;;5056429;28;20021;-64
2022/01/31 05:08:17;;;;;;;4.20;1.27;;;18.70;42.20;;;;;;5063768;28;20483;-64
2022/01/31 05:10:46;;;;;;;3.25;1.20;;;18.60;42.10;;;;;;5068691;28;20388;-64
2022/01/31 05:13:13;;;;;;;1.70;0.90;;;18.70;42.20;;;;;;5059826;28;20025;-64
2022/01/31 05:15:39;;;;;;;2.85;0.93;;;18.60;42.10;;;;;;5073902;28;20035;-64
2022/01/31 05:18:05;;;;;;;2.60;1.10;;;18.70;42.20;;;;;;5072335;28;20039;-64
2022/01/31 05:20:31;;;;;;;2.58;1.15;;;18.60;42.20;;;;;;5055297;28;20041;-64
2022/01/31 05:22:56;;;;;;;3.80;1.17;;;18.60;42.20;;;;;;5063532;28;20031;-64
2022/01/31 05:25:22;;;;;;;3.28;1.17;;;18.60;42.20;;;;;;5063478;28;20143;-64
2022/01/31 05:27:48;;;;;;;1.85;0.88;;;18.60;42.20;;;;;;5063101;28;20559;-64
2022/01/31 05:30:16;;;;;;;2.65;1.10;;;18.60;42.20;;;;;;5068278;28;20040;-64
2022/01/31 05:32:42;;;;;;;2.42;0.90;;;18.60;42.20;;;;;;5075750;28;20522;-64
2022/01/31 05:35:08;;;;;;;1.50;0.95;;;18.60;42.20;;;;;;5069151;28;20372;-64
2022/01/31 05:37:34;;;;;;;3.40;1.20;;;18.60;42.20;;;;;;5065643;28;20111;-64
2022/01/31 05:40:00;;;;;;;4.35;1.33;;;18.60;42.20;;;;;;5071949;28;20047;-64
2022/01/31 05:42:26;;;;;;;3.20;1.10;;;18.60;42.30;;;;;;5076190;28;20033;-64
2022/01/31 05:44:52;;;;;;;1.65;0.82;;;18.50;42.20;;;;;;5061765;28;20033;-63
2022/01/31 05:47:17;;;;;;;1.88;1.10;;;18.50;42.20;;;;;;5059304;28;20617;-64
2022/01/31 05:49:43;;;;;;;2.33;1.00;;;18.50;42.20;;;;;;5059757;28;20373;-63
2022/01/31 05:52:09;;;;;;;3.47;1.00;;;18.50;43.20;;;;;;5061203;28;20043;-64
2022/01/31 05:54:36;;;;;;;2.33;0.95;;;18.50;42.20;;;;;;5076176;28;20060;-64
2022/01/31 05:57:03;;;;;;;1.77;0.90;;;18.50;42.20;;;;;;5067311;28;20017;-64
2022/01/31 05:59:29;;;;;;;2.30;1.00;;;18.50;42.20;;;;;;5076371;28;20119;-64
2022/01/31 06:01:57;;;;;;;1.63;0.80;;;18.50;42.30;;;;;;5074464;28;20040;-64
2022/01/31 06:04:24;;;;;;;2.28;1.02;;;18.50;42.20;;;;;;5066734;28;20029;-64
2022/01/31 06:06:49;;;;;;;2.08;0.75;;;18.50;42.30;;;;;;5070968;28;20357;-64
2022/01/31 06:09:15;;;;;;;2.30;1.02;;;18.50;42.30;;;;;;5063393;28;20025;-64
2022/01/31 06:11:41;;;;;;;2.40;1.10;;;18.40;42.30;;;;;;5067207;28;20043;-64
2022/01/31 06:14:09;;;;;;;2.05;0.93;;;18.40;42.30;;;;;;5074696;28;20467;-64
2022/01/31 06:16:35;;;;;;;3.72;1.15;;;18.40;42.30;;;;;;5074807;28;20028;-64
2022/01/31 06:19:01;;;;;;;1.85;0.95;;;18.40;42.30;;;;;;5073822;28;20361;-64
2022/01/31 06:21:26;;;;;;;2.58;0.88;;;18.40;42.40;;;;;;5064940;28;20511;-64
2022/01/31 06:23:53;;;;;;;2.40;0.80;;;18.40;42.40;;;;;;5069058;28;20036;-64
2022/01/31 06:26:20;;;;;;;1.67;0.77;;;18.30;42.30;;;;;;5065489;28;20025;-64
2022/01/31 06:28:46;;;;;;;2.05;0.70;;;18.40;42.50;;;;;;5075095;28;20021;-64
2022/01/31 06:31:12;;;;;;;2.10;0.82;;;18.30;42.40;;;;;;5071185;28;20431;-64
2022/01/31 06:33:38;;;;;;;1.73;0.80;;;18.30;42.40;;;;;;5055623;28;20033;-63
2022/01/31 06:36:04;;;;;;;1.63;0.80;;;18.30;42.40;;;;;;5073560;28;20025;-64
2022/01/31 06:38:29;;;;;;;2.20;0.85;;;18.30;42.40;;;;;;5069890;28;20056;-64
2022/01/31 06:40:55;;;;;;;2.78;1.05;;;18.30;42.40;;;;;;5059431;28;20082;-64
2022/01/31 06:43:21;;;;;;;2.45;1.20;;;18.30;42.40;;;;;;5064341;28;20037;-64
2022/01/31 06:45:47;;;;;;;3.20;0.90;;;18.30;42.50;;;;;;5075358;28;20028;-64
2022/01/31 06:48:13;;;;;;;2.45;0.80;;;18.30;42.50;;;;;;5060175;28;20036;-64
2022/01/31 06:50:38;;;;;;;1.25;0.90;;;18.20;42.40;;;;;;5038320;28;20521;-63
2022/01/31 06:53:05;;;;;;;2.28;0.80;;;18.20;42.50;;;;;;5060459;28;20064;-64
2022/01/31 06:55:34;;;;;;;2.80;0.68;;;18.20;42.50;;;;;;5066531;28;20364;-64
2022/01/31 06:58:00;;;;;;;1.77;0.90;;;18.20;42.60;;;;;;5064554;28;20039;-64
2022/01/31 07:00:26;;;;;;;1.92;0.65;;;18.20;42.50;;;;;;5073947;28;20060;-64
2022/01/31 07:02:51;;;;;;;1.65;0.60;;;18.20;42.60;;;;;;5060170;28;20055;-64
2022/01/31 07:05:18;;;;;;;1.25;0.70;;;18.20;42.50;;;;;;5070603;28;20084;-64
2022/01/31 07:07:44;;;;;;;1.52;0.80;;;18.20;42.60;;;;;;5062586;28;20029;-63
2022/01/31 07:10:11;;;;;;;2.35;0.70;;;18.20;42.60;;;;;;5063188;28;20380;-64
2022/01/31 07:12:40;;;;;;;1.95;0.60;;;18.20;42.60;;;;;;5044858;28;20035;-64
2022/01/31 07:15:08;;;;;;;2.63;0.75;;;18.10;42.50;;;;;;5058050;28;20025;-64
2022/01/31 07:17:35;;;;;;;1.63;0.63;;;18.10;42.50;;;;;;5062828;28;20109;-64
2022/01/31 07:20:06;;;;;;;1.55;1.15;;;18.10;42.60;;;;;;5072637;28;20123;-64
2022/01/31 07:22:36;;;;;;;3.15;0.70;;;18.10;42.60;;;;;;5061955;28;20037;-64
2022/01/31 07:25:09;;;;;;;1.95;0.70;;;18.10;42.60;;;;;;5060819;28;20428;-65
2022/01/31 07:27:36;;;;;;;2.55;0.93;;;18.10;42.70;;;;;;5073110;28;20371;-63
2022/01/31 07:30:05;;;;;;;2.05;0.82;;;18.10;42.70;;;;;;5070818;28;20484;-64
2022/01/31 07:32:32;;;;;;;3.00;0.70;;;18.10;42.70;;;;;;5064069;28;20033;-64
2022/01/31 07:34:58;;;;;;;2.75;0.70;;;18.10;42.70;;;;;;5065387;28;20032;-64
2022/01/31 07:37:24;;;;;;;2.25;0.77;;;18.10;42.70;;;;;;5070249;28;20036;-64
2022/01/31 07:39:51;;;;;;;2.85;0.75;;;18.10;42.70;;;;;;5067553;28;20037;-63
2022/01/31 07:42:17;;;;;;;4.07;1.10;;;18.00;42.70;;;;;;5063564;28;20020;-65
2022/01/31 07:44:43;;;;;;;5.63;1.25;;;18.00;42.00;;;;;;5068175;28;20040;-65
2022/01/31 07:47:09;;;;;;;6.57;1.25;;;17.20;41.20;;;;;;5060564;28;20038;-66
2022/01/31 07:49:35;;;;;;;4.22;1.00;;;16.30;42.30;;;;;;5065004;28;20052;-64
2022/01/31 07:52:01;;;;;;;6.68;1.25;;;15.80;43.70;;;;;;5066055;28;20464;-64
2022/01/31 07:54:28;;;;;;;7.10;1.35;;;15.50;44.80;;;;;;5069770;28;20021;-64
2022/01/31 07:56:56;;;;;;;4.95;1.10;;;15.10;45.40;;;;;;5063944;28;20025;-65
2022/01/31 07:59:22;;;;;;;6.03;1.67;;;14.60;46.70;;;;;;5074060;28;20053;-63
2022/01/31 08:01:47;;;;;;;4.47;0.90;;;14.40;47.40;;;;;;5056604;28;20387;-62
2022/01/31 08:04:13;;;;;;;4.45;0.90;;;14.60;48.10;;;;;;5058146;28;20044;-62
2022/01/31 08:06:39;;;;;;;3.72;0.73;;;14.90;47.80;;;;;;5040617;28;20036;-63
2022/01/31 08:09:04;;;;;;;5.30;0.90;;;15.30;47.40;;;;;;5058298;28;20037;-63
2022/01/31 08:11:33;;;;;;;3.03;0.75;;;15.60;47.00;;;;;;5054480;28;20469;-63
2022/01/31 08:14:02;;;;;;;3.67;0.90;;;15.90;46.60;;;;;;5054314;28;20024;-63
2022/01/31 08:16:28;;;;;;;3.15;0.80;;;16.20;46.10;;;;;;5054358;28;20025;-63
2022/01/31 08:18:53;;;;;;;4.32;0.80;;;16.40;45.60;;;;;;5054240;28;20032;-63
2022/01/31 08:21:23;;;;;;;2.97;1.00;;;16.60;45.20;;;;;;5054478;28;20032;-62
2022/01/31 08:23:49;;;;;;;3.22;0.90;;;16.90;44.80;;;;;;5053260;28;20100;-62
2022/01/31 08:26:17;;;;;;;2.80;0.65;;;17.10;44.40;;;;;;5064804;28;20387;-63
2022/01/31 08:28:55;;;;;;;4.75;0.82;;;17.30;44.00;;;;;;5053756;28;20345;-64
2022/01/31 08:31:37;;;;;;;4.93;1.15;;;17.40;44.40;;;;;;5073962;28;20044;-63
2022/01/31 08:35:47;;;;;;;5.10;0.93;;;17.60;43.40;;;;;;5074029;28;20025;-63
2022/01/31 08:36:51;;;;;;;6.50;1.20;;;17.80;42.70;;;;;;5073195;28;20032;-63
2022/01/31 08:39:20;;;;;;;2.55;0.85;;;18.00;42.50;;;;;;5074228;28;20027;-63
2022/01/31 08:41:51;;;;;;;3.78;0.95;;;18.10;42.20;;;;;;5073814;28;20473;-63
2022/01/31 08:44:20;;;;;;;4.03;1.10;;;18.30;42.20;;;;;;5074161;28;20021;-63
2022/01/31 08:46:47;;;;;;;3.45;1.17;;;18.30;42.10;;;;;;5073572;28;20020;-63
2022/01/31 08:49:14;;;;;;;3.85;0.93;;;18.30;42.00;;;;;;5073848;28;20027;-63
2022/01/31 08:51:42;;;;;;;3.08;1.05;;;18.30;41.90;;;;;;5068405;28;20391;-63
2022/01/31 08:54:09;;;;;;;2.20;0.82;;;18.40;41.80;;;;;;5071764;28;20024;-63
2022/01/31 08:56:40;;;;;;;6.20;1.50;;;18.50;41.80;;;;;;5073400;28;20035;-63
2022/01/31 08:59:15;;;;;;;3.03;1.00;;;18.60;41.80;;;;;;5056101;28;20056;-63
2022/01/31 09:01:43;;;;;;;4.55;0.98;;;18.60;41.60;;;;;;5073514;28;20037;-63
2022/01/31 09:04:12;;;;;;;3.35;1.13;;;18.60;42.60;;;;;;5073449;28;20107;-64
2022/01/31 09:06:38;;;;;;;5.45;1.00;;;18.70;41.60;;;;;;5073832;28;20028;-64
2022/01/31 09:09:08;;;;;;;2.53;1.00;;;18.80;41.60;;;;;;5073019;28;20097;-64
2022/01/31 09:11:36;;;;;;;5.30;1.30;;;18.90;41.40;;;;;;5073503;28;20029;-64
2022/01/31 09:14:02;;;;;;;2.97;0.88;;;19.00;41.40;;;;;;5073502;28;20092;-64
2022/01/31 09:16:28;;;;;;;5.13;1.30;;;19.10;41.20;;;;;;5073311;28;20029;-64
2022/01/31 09:18:54;;;;;;;3.97;0.98;;;19.20;41.10;;;;;;5073402;28;20375;-64
2022/01/31 09:21:19;;;;;;;4.50;1.15;;;19.20;40.90;;;;;;5073494;28;20032;-64
2022/01/31 09:23:51;;;;;;;3.63;1.13;;;19.30;40.80;;;;;;5073226;28;20032;-65
2022/01/31 09:26:18;;;;;;;4.22;0.88;;;19.40;40.70;;;;;;5073364;28;20115;-64
2022/01/31 09:28:44;;;;;;;5.20;1.10;;;19.50;40.60;;;;;;5073431;28;20024;-64
2022/01/31 09:31:09;;;;;;;3.33;0.90;;;19.50;40.40;;;;;;5073111;28;20039;-64
2022/01/31 09:33:35;;;;;;;2.95;1.13;;;19.60;40.30;;;;;;5064722;28;20162;-66
2022/01/31 09:36:01;;;;;;;10.93;1.48;;;19.70;40.20;;;;;;5069810;28;20040;-65
2022/01/31 09:38:26;;;;;;;4.25;1.00;;;19.80;40.20;;;;;;5056012;28;20029;-66
2022/01/31 09:40:53;;;;;;;4.53;1.50;;;19.80;40.00;;;;;;5073376;28;20032;-65
2022/01/31 09:46:01;;;;;;;7.60;1.13;;;20.00;40.00;;;;;;5054315;28;20119;-66
2022/01/31 09:51:17;;;;;;;2.58;0.90;;;20.10;39.80;;;;;;5058846;28;20037;-64
2022/01/31 09:53:44;;;;;;;4.10;0.98;;;20.20;39.40;;;;;;5053264;28;20053;-65
2022/01/31 09:56:13;;;;;;;5.22;1.10;;;20.20;39.50;;;;;;5068691;28;20023;-64
2022/01/31 09:58:39;;;;;;;4.00;1.20;;;20.30;39.40;;;;;;5072922;28;20044;-64
2022/01/31 10:01:11;;;;;;;3.08;0.80;;;20.30;39.20;;;;;;5072913;28;20041;-65
2022/01/31 10:03:47;;;;;;;3.92;0.95;;;20.40;39.10;;;;;;5072957;28;20476;-65
2022/01/31 10:06:34;;;;;;;3.83;1.10;;;20.40;39.00;;;;;;5065470;28;20048;-63
2022/01/31 10:09:02;;;;;;;4.13;0.95;;;20.50;38.80;;;;;;5053700;28;20032;-66
2022/01/31 10:11:30;;;;;;;2.33;0.75;;;20.50;39.00;;;;;;5062617;28;20380;-66
2022/01/31 10:17:01;;;;;;;2.38;0.75;;;20.70;38.90;;;;;;5063789;28;20088;-64
2022/01/31 10:19:27;;;;;;;3.63;0.85;;;20.70;38.90;;;;;;5070946;28;20025;-64
2022/01/31 10:22:03;;;;;;;5.20;1.30;;;20.80;39.90;;;;;;5075327;28;20028;-64
2022/01/31 10:24:32;;;;;;;4.18;0.82;;;20.90;38.90;;;;;;5069494;28;20029;-65
2022/01/31 10:27:05;;;;;;;5.43;0.90;;;20.90;38.80;;;;;;5075178;28;20029;-66
2022/01/31 10:29:30;;;;;;;3.95;0.85;;;20.90;38.70;;;;;;5063027;28;20037;-65
2022/01/31 10:32:01;;;;;;;4.45;0.95;;;21.00;38.70;;;;;;5072955;28;20029;-64
2022/01/31 10:34:28;;;;;;;3.33;1.20;;;21.00;38.50;;;;;;5057074;28;20082;-65
2022/01/31 10:36:54;;;;;;;4.50;1.00;;;21.10;38.50;;;;;;5059320;28;20384;-64
2022/01/31 10:53:53;;;;;;;4.78;1.05;;;21.30;38.40;;;;;;5074971;28;20024;-64
2022/01/31 10:56:18;;;;;;;5.53;1.20;;;21.30;38.30;;;;;;5068014;28;20020;-65
2022/01/31 10:59:01;;;;;;;3.63;1.20;;;21.40;39.10;;;;;;5074420;28;20056;-65
2022/01/31 11:01:28;;;;;;;5.22;1.30;;;21.40;38.10;;;;;;5067148;28;20048;-66
2022/01/31 11:03:55;;;;;;;5.00;1.17;;;21.40;38.30;;;;;;5055756;28;20044;-65
2022/01/31 11:06:23;;;;;;;6.00;1.30;;;21.40;38.30;;;;;;5074325;28;20140;-64
2022/01/31 11:08:50;;;;;;;3.72;1.00;;;21.40;38.30;;;;;;5061073;28;20026;-64
2022/01/31 11:11:17;;;;;;;2.90;1.10;;;21.40;38.10;;;;;;5074663;28;20028;-65
2022/01/31 11:13:42;;;;;;;4.20;1.33;;;21.50;38.20;;;;;;5074251;28;20020;-65
2022/01/31 11:16:09;;;;;;;3.55;1.40;;;21.50;38.20;;;;;;5056590;28;20093;-66
2022/01/31 11:18:36;;;;;;;5.28;1.42;;;21.50;38.10;;;;;;5066673;28;20097;-64
2022/01/31 11:21:08;;;;;;;5.38;1.17;;;21.50;38.20;;;;;;5074491;28;20412;-64
2022/01/31 11:23:40;;;;;;;4.63;1.45;;;21.50;38.20;;;;;;5074388;28;20024;-65
2022/01/31 11:26:11;;;;;;;3.95;1.20;;;21.50;38.20;;;;;;5073591;28;20033;-63
2022/01/31 11:28:40;;;;;;;5.45;1.48;;;21.50;38.20;;;;;;5071349;28;20029;-65
2022/01/31 11:31:07;;;;;;;4.68;1.20;;;21.50;38.20;;;;;;5054074;28;20040;-65
2022/01/31 11:33:34;;;;;;;6.15;1.40;;;21.50;38.00;;;;;;5065160;28;20116;-65
2022/01/31 11:36:00;;;;;;;5.18;1.38;;;21.50;38.10;;;;;;5053954;28;20092;-64
2022/01/31 11:38:26;;;;;;;5.32;1.52;;;21.50;38.20;;;;;;5061865;28;20115;-64
2022/01/31 11:40:54;;;;;;;5.93;1.48;;;21.50;38.20;;;;;;5056050;28;20032;-64
2022/01/31 11:43:22;;;;;;;3.38;0.80;;;21.40;38.30;;;;;;5068915;28;20040;-64
2022/01/31 11:45:52;;;;;;;5.07;1.35;;;21.50;38.20;;;;;;5073675;28;20099;-65
2022/01/31 11:48:24;;;;;;;3.95;1.20;;;21.50;38.20;;;;;;5069274;28;20052;-63
2022/01/31 11:50:53;;;;;;;5.38;1.23;;;21.50;38.20;;;;;;5053857;28;20047;-64
2022/01/31 11:53:32;;;;;;;4.20;1.15;;;21.50;38.30;;;;;;5060017;28;20025;-64
2022/01/31 11:56:20;;;;;;;4.15;1.10;;;21.50;38.30;;;;;;5061015;28;20025;-65
2022/01/31 11:58:54;;;;;;;4.60;1.08;;;21.40;38.20;;;;;;5073542;28;20403;-65
2022/01/31 12:01:22;;;;;;;4.78;1.45;;;21.40;38.30;;;;;;5067920;28;20115;-64
2022/01/31 12:03:57;;;;;;;3.72;1.25;;;21.40;39.30;;;;;;5060031;28;20025;-65
2022/01/31 12:06:25;;;;;;;4.38;0.85;;;21.50;38.30;;;;;;5061154;28;20074;-66
2022/01/31 12:09:04;;;;;;;3.33;1.15;;;21.50;38.40;;;;;;5073415;28;20024;-67
2022/01/31 12:11:31;;;;;;;4.57;1.73;;;21.40;38.40;;;;;;5045484;28;20389;-66
2022/01/31 12:14:07;;;;;;;6.70;1.38;;;21.40;38.20;;;;;;5070202;28;20561;-66
2022/01/31 12:17:09;;;;;;;5.18;1.52;;;21.40;38.10;;;;;;5072952;28;20028;-66
2022/01/31 12:22:08;;;;;;;4.18;1.15;;;21.40;38.30;;;;;;5062642;28;20037;-64
2022/01/31 12:24:43;;;;;;;5.13;1.23;;;21.40;38.20;;;;;;5064238;28;20471;-65
2022/01/31 12:27:20;;;;;;;5.70;1.50;;;21.40;38.20;;;;;;5059529;28;20021;-65
2022/01/31 12:30:00;;;;;;;5.45;1.15;;;21.30;38.30;;;;;;5056598;28;20024;-63
2022/01/31 12:32:36;;;;;;;5.80;1.35;;;21.30;38.40;;;;;;5053041;28;20112;-65
2022/01/31 12:35:12;;;;;;;5.05;1.30;;;21.30;38.50;;;;;;5052876;28;20074;-65
2022/01/31 12:37:51;;;;;;;4.65;1.40;;;21.30;38.60;;;;;;5052174;28;20032;-65
2022/01/31 12:40:29;;;;;;;4.05;1.20;;;21.40;38.60;;;;;;5065101;28;20070;-66
2022/01/31 12:44:08;;;;;;;5.75;1.70;;;21.30;38.60;;;;;;5054568;28;20063;-67
2022/01/31 12:46:09;;;;;;;6.43;1.23;;;21.30;38.20;;;;;;5061060;28;20032;-67
2022/01/31 12:48:36;;;;;;;5.57;1.20;;;21.30;38.60;;;;;;5064551;28;20040;-66
2022/01/31 12:51:05;;;;;;;5.82;1.23;;;21.30;38.60;;;;;;5052574;28;20021;-66
2022/01/31 12:56:03;;;;;;;5.28;1.67;;;21.30;38.60;;;;;;5072140;28;20353;-66
2022/01/31 12:58:33;;;;;;;6.38;1.25;;;21.20;38.60;;;;;;5056552;28;20499;-66
2022/01/31 13:01:11;;;;;;;4.65;1.50;;;21.20;38.70;;;;;;5069102;28;20032;-66
2022/01/31 13:03:40;;;;;;;4.82;1.17;;;21.30;38.80;;;;;;5070699;28;20399;-66
2022/01/31 13:06:30;;;;;;;6.00;1.33;;;21.20;38.70;;;;;;5054016;28;20052;-66
2022/01/31 13:08:59;;;;;;;5.43;1.67;;;21.30;38.70;;;;;;5060141;28;20498;-66
2022/01/31 13:11:25;;;;;;;6.57;1.50;;;21.20;38.70;;;;;;5065059;28;20036;-66
2022/01/31 13:14:00;;;;;;;4.30;1.30;;;21.20;38.80;;;;;;5066181;28;20094;-66
2022/01/31 13:16:25;;;;;;;5.05;1.45;;;21.20;38.90;;;;;;5071141;28;20021;-66
2022/01/31 13:18:52;;;;;;;4.97;1.23;;;21.20;38.90;;;;;;5058771;28;20029;-66
2022/01/31 13:21:19;;;;;;;6.00;1.63;;;21.20;38.80;;;;;;5060216;28;20025;-66